Time;durP1;ratioP1;P1;durP2;ratioP2;P2;SDS_P1;SDS_P2;PMS_P1;PMS_P2;Temp;Humidity;BMP_temperature;BMP_pressure;BME280_temperature;BME280_humidity;BME280_pressure;Samples;Min_cycle;Max_cycle;Signal;HPM_P1;HPM_P2
2022/01/25 00:15:23;;;;;;;;;;;19.20;57.00;;;;;;5055076;28;1071;-65
2022/01/25 00:26:17;;;;;;;;;;;19.20;57.10;;;;;;5055646;28;1318;-65
2022/01/25 00:28:47;;;;;;;;;;;19.20;57.10;;;;;;5054584;28;1623;-65
2022/01/25 00:31:13;;;;;;;;;;;19.20;57.10;;;;;;5055450;28;1917;-65
2022/01/25 00:33:40;;;;;;;;;;;19.20;57.10;;;;;;5053568;28;1363;-65
2022/01/25 00:36:06;;;;;;;;;;;19.20;57.10;;;;;;5054233;28;1675;-65
2022/01/25 00:38:32;;;;;;;;;;;19.20;57.10;;;;;;5053128;28;1498;-65
2022/01/25 00:40:57;;;;;;;;;;;19.20;57.20;;;;;;5053921;28;1389;-65
2022/01/25 00:43:25;;;;;;;;;;;19.20;57.20;;;;;;5051783;28;1361;-64
2022/01/25 00:45:53;;;;;;;;;;;19.20;57.20;;;;;;5055013;28;1379;-64
2022/01/25 00:48:30;;;;;;;;;;;19.20;57.20;;;;;;5053381;28;1308;-65
2022/01/25 00:51:03;;;;;;;;;;;19.10;57.10;;;;;;5053562;28;1898;-64
2022/01/25 00:56:13;;;;;;;;;;;19.20;57.30;;;;;;5054215;28;1131;-66
2022/01/25 00:58:38;;;;;;;;;;;19.20;57.30;;;;;;5053945;28;1054;-66
2022/01/25 01:01:04;;;;;;;;;;;19.10;57.20;;;;;;5054441;28;1321;-66
2022/01/25 01:03:29;;;;;;;;;;;19.10;57.20;;;;;;5053179;28;1199;-67
2022/01/25 01:05:55;;;;;;;;;;;19.10;57.30;;;;;;5053964;28;1067;-67
2022/01/25 01:08:20;;;;;;;;;;;19.10;57.30;;;;;;5054065;28;1322;-67
2022/01/25 01:10:45;;;;;;;;;;;19.10;57.30;;;;;;5053363;28;1894;-67
2022/01/25 01:13:43;;;;;;;;;;;19.10;57.30;;;;;;5046443;28;1410;-66
2022/01/25 01:16:18;;;;;;;;;;;19.10;57.30;;;;;;5058784;28;1162;-66
2022/01/25 01:30:00;;;;;;;;;;;19.10;57.40;;;;;;5045973;28;1073;-66
2022/01/25 01:33:00;;;;;;;;;;;19.10;57.40;;;;;;5046048;28;1917;-66
2022/01/25 01:43:00;;;;;;;;;;;19.00;57.40;;;;;;5047073;28;1356;-65
2022/01/25 01:45:38;;;;;;;;;;;19.00;57.40;;;;;;5045863;28;1162;-65
2022/01/25 01:48:07;;;;;;;;;;;19.00;57.40;;;;;;5057915;28;1077;-67
2022/01/25 01:50:35;;;;;;;;;;;19.00;57.40;;;;;;5058256;28;1898;-66
2022/01/25 01:53:02;;;;;;;;;;;19.00;57.50;;;;;;5044657;28;1358;-67
2022/01/25 01:55:27;;;;;;;;;;;19.00;57.50;;;;;;5056973;28;1199;-66
2022/01/25 01:57:53;;;;;;;;;;;19.00;57.50;;;;;;5042930;28;1199;-67
2022/01/25 02:00:20;;;;;;;;;;;19.00;57.50;;;;;;5042640;28;1247;-67
2022/01/25 02:02:46;;;;;;;;;;;19.00;57.50;;;;;;5059475;28;1311;-67
2022/01/25 02:05:11;;;;;;;;;;;19.00;57.50;;;;;;5058597;28;1104;-66
2022/01/25 02:07:36;;;;;;;;;;;19.00;57.60;;;;;;5045894;28;1331;-67
2022/01/25 02:10:03;;;;;;;;;;;19.00;57.60;;;;;;5046331;28;1203;-66
2022/01/25 02:12:28;;;;;;;;;;;19.00;57.60;;;;;;5063414;28;1906;-67
2022/01/25 02:14:55;;;;;;;;;;;19.00;57.60;;;;;;5051806;28;1362;-66
2022/01/25 02:22:53;;;;;;;;;;;19.00;57.60;;;;;;5040128;28;1404;-67
2022/01/25 02:25:18;;;;;;;;;;;19.00;57.60;;;;;;5046478;28;1207;-66
2022/01/25 02:27:44;;;;;;;;;;;19.00;57.60;;;;;;5041948;28;1418;-67
2022/01/25 02:30:10;;;;;;;;;;;19.00;57.60;;;;;;5042847;28;1213;-66
2022/01/25 02:32:35;;;;;;;;;;;18.90;57.60;;;;;;5041896;28;1910;-66
2022/01/25 02:35:02;;;;;;;;;;;18.90;57.60;;;;;;5043036;28;1328;-65
2022/01/25 02:37:28;;;;;;;;;;;18.90;57.60;;;;;;5042638;28;1406;-66
2022/01/25 02:39:53;;;;;;;;;;;18.90;57.60;;;;;;5043105;28;1254;-66
2022/01/25 02:42:19;;;;;;;;;;;18.90;57.70;;;;;;5041551;28;1411;-67
2022/01/25 02:44:45;;;;;;;;;;;18.90;57.70;;;;;;5043006;28;1347;-67
2022/01/25 02:49:54;;;;;;;;;;;19.00;57.70;;;;;;5057842;28;1377;-66
2022/01/25 02:52:20;;;;;;;;;;;19.00;57.60;;;;;;5045339;28;1958;-66
2022/01/25 02:54:45;;;;;;;;;;;19.00;57.50;;;;;;5059802;28;1425;-66
2022/01/25 02:57:11;;;;;;;;;;;19.10;57.50;;;;;;5041868;28;1114;-67
2022/01/25 02:59:37;;;;;;;;;;;19.10;57.30;;;;;;5043378;28;1208;-67
2022/01/25 03:02:02;;;;;;;;;;;19.20;57.30;;;;;;5042788;28;1414;-67
2022/01/25 03:04:29;;;;;;;;;;;19.40;57.10;;;;;;5043676;28;1354;-66
2022/01/25 03:06:54;;;;;;;;;;;19.50;57.00;;;;;;5043619;28;1202;-66
2022/01/25 03:09:20;;;;;;;;;;;19.60;56.80;;;;;;5058631;28;1159;-66
2022/01/25 03:11:47;;;;;;;;;;;19.70;56.50;;;;;;5044427;28;1890;-67
2022/01/25 03:14:13;;;;;;;;;;;19.80;56.20;;;;;;5042930;28;1303;-66
2022/01/25 03:16:46;;;;;;;;;;;20.00;55.90;;;;;;5056767;28;1195;-66
2022/01/25 03:21:58;;;;;;;;;;;20.20;55.40;;;;;;5056088;28;1152;-66
2022/01/25 03:24:24;;;;;;;;;;;20.30;55.10;;;;;;5044695;28;1290;-66
2022/01/25 03:26:49;;;;;;;;;;;20.40;54.90;;;;;;5057981;28;1203;-67
2022/01/25 03:29:14;;;;;;;;;;;20.50;54.60;;;;;;5043368;28;1824;-67
2022/01/25 03:31:40;;;;;;;;;;;20.60;54.40;;;;;;5057773;28;1897;-67
2022/01/25 03:34:06;;;;;;;;;;;20.60;54.20;;;;;;5044909;28;1358;-67
2022/01/25 03:36:31;;;;;;;;;;;20.70;54.00;;;;;;5065257;28;1210;-66
2022/01/25 03:38:57;;;;;;;;;;;20.80;53.90;;;;;;5054317;28;1437;-67
2022/01/25 03:41:26;;;;;;;;;;;20.80;53.80;;;;;;5055887;28;1243;-66
2022/01/25 03:43:54;;;;;;;;;;;20.90;53.70;;;;;;5056116;28;1634;-66
2022/01/25 03:46:31;;;;;;;;;;;20.90;53.50;;;;;;5055159;28;1229;-67
2022/01/25 03:51:40;;;;;;;;;;;21.00;53.40;;;;;;5056058;28;1898;-66
2022/01/25 03:54:06;;;;;;;;;;;21.00;53.30;;;;;;5054428;28;1322;-66
2022/01/25 03:56:32;;;;;;;;;;;21.10;53.30;;;;;;5055408;28;1188;-67
2022/01/25 03:58:57;;;;;;;;;;;21.10;53.30;;;;;;5054660;28;1273;-66
2022/01/25 04:01:22;;;;;;;;;;;21.10;53.30;;;;;;5055731;28;1150;-66
2022/01/25 04:06:22;;;;;;;;;;;21.10;53.40;;;;;;5055916;28;1059;-67
2022/01/25 04:08:48;;;;;;;;;;;21.10;53.30;;;;;;5055050;28;1251;-66
2022/01/25 04:11:13;;;;;;;;;;;21.10;53.30;;;;;;5054976;28;1902;-67
2022/01/25 04:13:39;;;;;;;;;;;21.10;53.30;;;;;;5061694;22;3705;-69
2022/01/25 04:16:11;;;;;;;;;;;21.10;53.20;;;;;;5042322;28;1088;-69
2022/01/25 04:18:53;;;;;;;;;;;21.10;53.20;;;;;;5054485;28;1107;-68
2022/01/25 04:26:54;;;;;;;;;;;21.10;53.30;;;;;;5055449;28;1061;-69
2022/01/25 04:29:19;;;;;;;;;;;21.10;53.30;;;;;;5053580;28;1138;-68
2022/01/25 04:31:44;;;;;;;;;;;21.00;53.30;;;;;;5053684;28;1913;-69
2022/01/25 04:34:24;;;;;;;;;;;21.00;53.40;;;;;;5054806;28;1290;-69
2022/01/25 04:51:04;;;;;;;;;;;20.90;53.60;;;;;;5054465;28;1031;-69
2022/01/25 04:53:44;;;;;;;;;;;20.90;53.60;;;;;;5055015;28;1291;-68
2022/01/25 04:56:24;;;;;;;;;;;20.90;53.70;;;;;;5054277;28;1079;-69
2022/01/25 04:58:59;;;;;;;;;;;20.90;53.70;;;;;;5054362;28;1307;-69
2022/01/25 05:01:25;;;;;;;;;;;20.80;53.80;;;;;;5054083;28;1035;-68
2022/01/25 05:04:04;;;;;;;;;;;20.80;53.80;;;;;;5054645;28;1335;-69
2022/01/25 05:06:31;;;;;;;;;;;20.80;53.80;;;;;;5054024;28;1107;-68
2022/01/25 05:09:06;;;;;;;;;;;20.80;53.80;;;;;;5052695;28;1055;-69
2022/01/25 05:11:34;;;;;;;;;;;20.80;53.90;;;;;;5053099;28;1890;-69
2022/01/25 05:14:18;;;;;;;;;;;20.80;53.90;;;;;;5054267;28;1426;-69
2022/01/25 05:24:27;;;;;;;;;;;20.70;54.00;;;;;;5054159;28;1290;-69
2022/01/25 05:26:52;;;;;;;;;;;20.70;54.00;;;;;;5052936;28;1083;-69
2022/01/25 05:29:18;;;;;;;;;;;20.70;54.10;;;;;;5051273;28;1076;-68
2022/01/25 05:31:43;;;;;;;;;;;20.70;54.10;;;;;;5052522;28;1949;-69
2022/01/25 05:34:09;;;;;;;;;;;20.70;54.10;;;;;;5053952;28;1204;-69
2022/01/25 05:36:35;;;;;;;;;;;20.70;54.20;;;;;;5052704;28;1211;-69
2022/01/25 05:39:05;;;;;;;;;;;20.70;54.20;;;;;;5051864;28;1051;-69
2022/01/25 05:41:33;;;;;;;;;;;20.60;54.20;;;;;;5052668;28;1044;-69
2022/01/25 05:44:22;;;;;;;;;;;20.60;54.20;;;;;;5053217;28;1239;-69
2022/01/25 05:47:03;;;;;;;;;;;20.60;54.30;;;;;;5052249;28;1473;-69
2022/01/25 05:49:28;;;;;;;;;;;20.60;54.30;;;;;;5053163;28;1051;-68
2022/01/25 05:51:54;;;;;;;;;;;20.60;54.30;;;;;;5053451;28;1902;-68
2022/01/25 05:54:19;;;;;;;;;;;20.60;54.30;;;;;;5053337;28;1396;-67
2022/01/25 05:56:45;;;;;;;;;;;20.60;54.40;;;;;;5051932;28;1139;-68
2022/01/25 05:59:10;;;;;;;;;;;20.60;54.40;;;;;;5053190;28;1328;-68
2022/01/25 06:01:36;;;;;;;;;;;20.60;54.40;;;;;;5053503;28;1378;-68
2022/01/25 06:04:02;;;;;;;;;;;20.60;54.50;;;;;;5052545;28;1356;-67
2022/01/25 06:06:29;;;;;;;;;;;20.50;54.40;;;;;;5052055;28;1139;-68
2022/01/25 06:08:54;;;;;;;;;;;20.60;54.50;;;;;;5052678;28;1019;-68
2022/01/25 06:11:20;;;;;;;;;;;20.60;54.50;;;;;;5053094;28;1894;-67
2022/01/25 06:13:46;;;;;;;;;;;20.50;54.40;;;;;;5051396;28;1351;-67
2022/01/25 06:16:11;;;;;;;;;;;20.50;54.40;;;;;;5052009;28;1135;-68
2022/01/25 06:18:36;;;;;;;;;;;20.50;54.50;;;;;;5052081;28;1118;-68
2022/01/25 06:21:02;;;;;;;;;;;20.50;54.50;;;;;;5053051;28;1126;-68
2022/01/25 06:23:27;;;;;;;;;;;20.50;54.60;;;;;;5051624;28;1408;-68
2022/01/25 06:25:53;;;;;;;;;;;20.50;54.60;;;;;;5053031;28;1193;-68
2022/01/25 06:28:19;;;;;;;;;;;20.50;54.60;;;;;;5051977;28;1111;-68
2022/01/25 06:30:45;;;;;;;;;;;20.40;54.60;;;;;;5052576;28;1961;-68
2022/01/25 06:33:10;;;;;;;;;;;20.40;54.60;;;;;;5053205;28;1347;-68
2022/01/25 06:35:36;;;;;;;;;;;20.40;54.70;;;;;;5052739;28;1134;-66
2022/01/25 06:38:01;;;;;;;;;;;20.40;54.70;;;;;;5051428;28;1068;-67
2022/01/25 06:40:27;;;;;;;;;;;20.40;54.70;;;;;;5051808;28;1095;-67
2022/01/25 06:42:52;;;;;;;;;;;20.40;54.70;;;;;;5051399;28;1348;-67
2022/01/25 06:45:20;;;;;;;;;;;20.40;54.80;;;;;;5034863;28;1899;-67
2022/01/25 06:47:46;;;;;;;;;;;20.40;54.80;;;;;;5041782;28;1735;-67
2022/01/25 06:50:11;;;;;;;;;;;20.40;54.80;;;;;;5051020;28;1083;-66
2022/01/25 06:52:38;;;;;;;;;;;20.40;55.40;;;;;;5055723;28;1902;-68
2022/01/25 06:55:08;;;;;;;;;;;20.40;54.80;;;;;;5064978;28;1220;-66
2022/01/25 06:57:33;;;;;;;;;;;20.40;54.90;;;;;;5066060;28;1284;-67
2022/01/25 06:59:59;;;;;;;;;;;20.30;54.80;;;;;;5050904;28;1391;-65
2022/01/25 07:02:24;;;;;;;;;;;20.40;54.90;;;;;;5051540;28;1074;-67
2022/01/25 07:04:50;;;;;;;;;;;20.30;54.80;;;;;;5051166;28;1319;-67
2022/01/25 07:07:15;;;;;;;;;;;20.30;54.90;;;;;;5051141;28;1059;-69
2022/01/25 07:09:40;;;;;;;;;;;20.30;54.90;;;;;;5050838;28;1092;-68
2022/01/25 07:12:06;;;;;;;;;;;20.30;54.90;;;;;;5050259;28;1898;-67
2022/01/25 07:14:31;;;;;;;;;;;20.30;54.90;;;;;;5052371;28;1281;-69
2022/01/25 07:16:57;;;;;;;;;;;20.30;55.00;;;;;;5052498;28;1244;-67
2022/01/25 07:19:24;;;;;;;;;;;20.30;55.00;;;;;;5051596;28;1399;-67
2022/01/25 07:21:49;;;;;;;;;;;20.30;55.00;;;;;;5051910;28;1114;-67
2022/01/25 07:24:15;;;;;;;;;;;20.30;55.00;;;;;;5052547;28;1366;-67
2022/01/25 07:26:40;;;;;;;;;;;20.30;55.00;;;;;;5052036;28;1072;-68
2022/01/25 07:29:05;;;;;;;;;;;20.30;55.10;;;;;;5051523;28;1380;-67
2022/01/25 07:31:31;;;;;;;;;;;20.30;55.10;;;;;;5052063;28;1910;-67
2022/01/25 07:33:56;;;;;;;;;;;20.20;55.10;;;;;;5051989;28;1355;-68
2022/01/25 07:36:22;;;;;;;;;;;20.20;55.10;;;;;;5067099;28;1091;-68
2022/01/25 07:38:47;;;;;;;;;;;20.20;55.10;;;;;;5051761;28;1305;-68
2022/01/25 07:41:12;;;;;;;;;;;20.20;55.20;;;;;;5052054;28;1386;-69
2022/01/25 07:43:38;;;;;;;;;;;20.20;55.20;;;;;;5052481;28;1368;-68
2022/01/25 07:46:05;;;;;;;;;;;20.20;55.20;;;;;;5052323;28;1398;-69
2022/01/25 07:48:30;;;;;;;;;;;20.20;55.20;;;;;;5051214;28;1405;-67
2022/01/25 07:50:55;;;;;;;;;;;20.20;55.20;;;;;;5051718;28;1957;-67
2022/01/25 07:53:21;;;;;;;;;;;20.30;55.10;;;;;;5052025;28;1351;-69
2022/01/25 07:55:46;;;;;;;;;;;20.30;55.00;;;;;;5052177;28;1098;-67
2022/01/25 07:58:12;;;;;;;;;;;20.40;54.90;;;;;;5051457;28;1395;-67
2022/01/25 08:00:37;;;;;;;;;;;20.50;54.80;;;;;;5052139;28;1254;-67
2022/01/25 08:03:03;;;;;;;;;;;20.60;54.60;;;;;;5051618;28;1283;-67
2022/01/25 08:05:28;;;;;;;;;;;20.70;54.50;;;;;;5050287;28;1399;-67
2022/01/25 08:07:53;;;;;;;;;;;20.80;54.30;;;;;;5051324;28;1058;-68
2022/01/25 08:10:19;;;;;;;;;;;20.90;54.10;;;;;;5050851;28;1384;-66
2022/01/25 08:12:45;;;;;;;;;;;21.00;53.90;;;;;;5052111;28;1942;-69
2022/01/25 08:15:11;;;;;;;;;;;21.10;53.70;;;;;;5052549;28;1340;-68
2022/01/25 08:17:36;;;;;;;;;;;21.10;53.50;;;;;;5047611;28;1946;-68
2022/01/25 08:20:02;;;;;;;;;;;21.20;53.40;;;;;;5049310;28;1934;-69
2022/01/25 08:22:27;;;;;;;;;;;21.20;53.30;;;;;;5045365;28;1151;-70
2022/01/25 08:24:53;;;;;;;;;;;21.30;53.20;;;;;;5048004;28;1681;-69
2022/01/25 08:27:20;;;;;;;;;;;21.30;53.20;;;;;;5053964;28;1392;-70
2022/01/25 08:29:48;;;;;;;;;;;21.30;53.10;;;;;;5055676;28;1153;-69
2022/01/25 08:32:14;;;;;;;;;;;21.30;53.00;;;;;;5053629;28;1905;-69
2022/01/25 08:34:39;;;;;;;;;;;21.40;53.10;;;;;;5054022;28;1300;-69
2022/01/25 08:37:05;;;;;;;;;;;21.40;53.10;;;;;;5054591;28;1365;-68
2022/01/25 08:39:31;;;;;;;;;;;21.40;53.00;;;;;;5054877;28;1288;-70
2022/01/25 08:41:56;;;;;;;;;;;21.40;53.00;;;;;;5054653;28;1107;-69
2022/01/25 08:44:21;;;;;;;;;;;21.40;53.00;;;;;;5054647;28;1277;-70
2022/01/25 08:46:47;;;;;;;;;;;21.40;52.90;;;;;;5055390;28;1095;-70
2022/01/25 08:49:12;;;;;;;;;;;21.40;52.90;;;;;;5054534;28;901;-68
2022/01/25 08:51:38;;;;;;;;;;;21.40;53.00;;;;;;5054511;28;1910;-68
2022/01/25 08:54:03;;;;;;;;;;;21.40;53.00;;;;;;5052831;28;1440;-67
2022/01/25 08:56:29;;;;;;;;;;;21.40;53.00;;;;;;5053722;28;1346;-68
2022/01/25 08:58:54;;;;;;;;;;;21.30;53.00;;;;;;5054665;28;1074;-68
2022/01/25 09:01:20;;;;;;;;;;;21.30;53.10;;;;;;5053377;28;1326;-68
2022/01/25 09:03:45;;;;;;;;;;;21.20;53.10;;;;;;5053125;28;1391;-68
2022/01/25 09:06:11;;;;;;;;;;;21.20;53.20;;;;;;5052907;28;1432;-68
2022/01/25 09:08:36;;;;;;;;;;;21.20;53.20;;;;;;5054244;28;1070;-67
2022/01/25 09:11:04;;;;;;;;;;;21.20;53.20;;;;;;5054196;28;1894;-68
2022/01/25 09:13:31;;;;;;;;;;;21.20;53.30;;;;;;5054381;28;1370;-67
2022/01/25 09:15:57;;;;;;;;;;;21.20;53.90;;;;;;5054300;28;1067;-69
2022/01/25 09:18:22;;;;;;;;;;;21.20;53.40;;;;;;5052792;28;1458;-68
2022/01/25 09:20:48;;;;;;;;;;;21.20;53.40;;;;;;5053560;28;1324;-67
2022/01/25 09:23:16;;;;;;;;;;;21.10;53.40;;;;;;5054003;28;1314;-68
2022/01/25 09:25:41;;;;;;;;;;;21.10;53.50;;;;;;5054416;28;1293;-67
2022/01/25 09:28:07;;;;;;;;;;;21.10;53.50;;;;;;5053787;28;1223;-68
2022/01/25 09:30:32;;;;;;;;;;;21.10;53.60;;;;;;5053675;28;1165;-68
2022/01/25 09:32:58;;;;;;;;;;;21.10;53.60;;;;;;5053202;28;1910;-67
2022/01/25 09:35:24;;;;;;;;;;;21.10;53.70;;;;;;5053718;28;1368;-67
2022/01/25 09:37:50;;;;;;;;;;;21.00;53.70;;;;;;5053603;28;1225;-67
2022/01/25 09:40:16;;;;;;;;;;;21.00;53.70;;;;;;5054272;28;1252;-67
2022/01/25 09:42:41;;;;;;;;;;;21.00;53.70;;;;;;5053573;28;1492;-70
2022/01/25 09:45:07;;;;;;;;;;;21.00;53.80;;;;;;5052269;28;1203;-67
2022/01/25 09:47:32;;;;;;;;;;;21.00;53.80;;;;;;5041727;28;1115;-67
2022/01/25 09:49:58;;;;;;;;;;;21.00;53.80;;;;;;5047957;28;1051;-67
2022/01/25 09:52:23;;;;;;;;;;;20.90;53.80;;;;;;5051690;28;1973;-66
2022/01/25 09:54:59;;;;;;;;;;;20.90;53.90;;;;;;5052951;28;1665;-67
2022/01/25 09:57:24;;;;;;;;;;;20.90;53.90;;;;;;5052205;28;1074;-67
2022/01/25 09:59:50;;;;;;;;;;;20.90;53.90;;;;;;5052459;28;1293;-66
2022/01/25 10:02:34;;;;;;;;;;;20.90;54.00;;;;;;5052582;28;1388;-68
2022/01/25 10:05:06;;;;;;;;;;;20.90;54.00;;;;;;5051794;28;1275;-67
2022/01/25 10:07:31;;;;;;;;;;;20.90;54.10;;;;;;5050623;28;1202;-67
2022/01/25 10:09:57;;;;;;;;;;;20.80;54.10;;;;;;5052401;28;1388;-68
2022/01/25 10:12:23;;;;;;;;;;;20.80;54.10;;;;;;5051109;28;1906;-67
2022/01/25 10:14:52;;;;;;;;;;;20.80;54.10;;;;;;5051694;28;1227;-68
2022/01/25 10:17:28;;;;;;;;;;;20.80;54.10;;;;;;5052985;28;1108;-68
2022/01/25 10:19:53;;;;;;;;;;;20.80;54.20;;;;;;5053309;28;1078;-67
2022/01/25 10:22:19;;;;;;;;;;;20.80;54.20;;;;;;5053153;28;1345;-67
2022/01/25 10:24:44;;;;;;;;;;;20.80;54.20;;;;;;5052968;28;1404;-66
2022/01/25 10:27:10;;;;;;;;;;;20.80;54.20;;;;;;5052454;28;1301;-67
2022/01/25 10:29:36;;;;;;;;;;;20.80;54.20;;;;;;5052953;28;1244;-68
2022/01/25 10:32:05;;;;;;;;;;;20.90;54.20;;;;;;5052707;28;1919;-70
2022/01/25 10:34:43;;;;;;;;;;;20.90;54.20;;;;;;5051908;28;1241;-67
2022/01/25 10:37:10;;;;;;;;;;;20.90;54.20;;;;;;5052475;28;1261;-67
2022/01/25 10:39:36;;;;;;;;;;;20.90;54.10;;;;;;5051612;28;1396;-67
2022/01/25 10:42:01;;;;;;;;;;;20.90;54.10;;;;;;5050985;28;1354;-68
2022/01/25 10:44:43;;;;;;;;;;;20.90;54.00;;;;;;5052169;28;1261;-67
2022/01/25 10:47:08;;;;;;;;;;;20.90;54.00;;;;;;5051756;28;1117;-68
2022/01/25 10:49:40;;;;;;;;;;;20.90;54.00;;;;;;5053068;28;1098;-66
2022/01/25 10:52:06;;;;;;;;;;;20.90;54.00;;;;;;5051386;28;1963;-68
2022/01/25 10:54:31;;;;;;;;;;;20.90;54.00;;;;;;5051898;28;1294;-66
2022/01/25 10:56:57;;;;;;;;;;;21.00;54.00;;;;;;5045718;28;1303;-68
2022/01/25 10:59:23;;;;;;;;;;;21.00;54.00;;;;;;5034355;28;1094;-68
2022/01/25 11:01:49;;;;;;;;;;;20.90;53.90;;;;;;5051164;28;1274;-68
2022/01/25 11:04:15;;;;;;;;;;;20.90;54.00;;;;;;5051674;28;1377;-67
2022/01/25 11:06:41;;;;;;;;;;;20.90;54.00;;;;;;5051432;28;1061;-67
2022/01/25 11:09:07;;;;;;;;;;;20.90;54.00;;;;;;5049478;28;1115;-66
2022/01/25 11:11:35;;;;;;;;;;;20.90;54.00;;;;;;5050225;28;1971;-66
2022/01/25 11:14:50;;;;;;;;;;;20.90;54.00;;;;;;5049691;28;1314;-67
2022/01/25 11:16:46;;;;;;;;;;;20.90;54.00;;;;;;5050321;28;1350;-66
2022/01/25 11:19:12;;;;;;;;;;;20.90;54.00;;;;;;5049451;28;1405;-66
2022/01/25 11:21:37;;;;;;;;;;;20.90;54.10;;;;;;5051126;28;1394;-69
2022/01/25 11:24:03;;;;;;;;;;;20.90;54.10;;;;;;5049899;28;1330;-66
2022/01/25 11:26:28;;;;;;;;;;;20.90;54.10;;;;;;5049917;28;1080;-67
2022/01/25 11:28:53;;;;;;;;;;;20.90;54.10;;;;;;5048966;28;1394;-67
2022/01/25 11:31:20;;;;;;;;;;;20.90;54.10;;;;;;5051211;28;1898;-66
2022/01/25 11:33:46;;;;;;;;;;;20.90;54.10;;;;;;5049854;28;1369;-67
2022/01/25 11:36:11;;;;;;;;;;;20.90;54.10;;;;;;5049569;28;1281;-66
2022/01/25 11:38:55;;;;;;;;;;;20.90;54.10;;;;;;5050892;28;1309;-67
2022/01/25 11:41:21;;;;;;;;;;;20.90;54.10;;;;;;5050809;28;1154;-68
2022/01/25 11:44:06;;;;;;;;;;;20.90;54.10;;;;;;5051076;28;1216;-66
2022/01/25 11:46:31;;;;;;;;;;;20.90;54.10;;;;;;5050487;28;1339;-67
2022/01/25 11:48:59;;;;;;;;;;;20.90;54.10;;;;;;5050803;28;1343;-67
2022/01/25 11:51:25;;;;;;;;;;;20.90;54.70;;;;;;5050914;28;1973;-67
2022/01/25 11:53:50;;;;;;;;;;;20.90;54.10;;;;;;5051325;28;1418;-66
2022/01/25 11:56:16;;;;;;;;;;;20.90;54.10;;;;;;5053629;28;1261;-67
2022/01/25 11:58:41;;;;;;;;;;;20.90;54.10;;;;;;5053464;28;1354;-67
2022/01/25 12:01:19;;;;;;;;;;;20.90;54.10;;;;;;5054502;28;1161;-69
2022/01/25 12:03:45;;;;;;;;;;;20.90;54.10;;;;;;5054785;28;1352;-68
2022/01/25 12:06:36;;;;;;;;;;;20.90;54.10;;;;;;5054549;28;1103;-68
2022/01/25 12:11:40;;;;;;;;;;;20.90;54.10;;;;;;5053942;28;1961;-67
2022/01/25 12:14:09;;;;;;;;;;;20.90;54.10;;;;;;5054464;28;1406;-67
2022/01/25 12:16:43;;;;;;;;;;;20.90;54.10;;;;;;5053481;28;1075;-66
2022/01/25 12:19:08;;;;;;;;;;;20.90;54.10;;;;;;5054072;28;1079;-66
2022/01/25 12:21:53;;;;;;;;;;;20.90;54.10;;;;;;5054552;28;1043;-67
2022/01/25 12:24:33;;;;;;;;;;;20.90;54.10;;;;;;5055271;28;1237;-67
2022/01/25 12:27:16;;;;;;;;;;;20.90;54.20;;;;;;5052920;28;1104;-68
2022/01/25 12:29:46;;;;;;;;;;;20.90;54.20;;;;;;5055108;28;1258;-67
2022/01/25 12:32:14;;;;;;;;;;;20.90;54.20;;;;;;5052599;28;1910;-66
2022/01/25 12:35:00;;;;;;;;;;;20.90;54.20;;;;;;5053131;28;1341;-67
2022/01/25 12:37:44;;;;;;;;;;;20.90;54.20;;;;;;5036956;28;1096;-68
2022/01/25 12:40:25;;;;;;;;;;;20.90;54.10;;;;;;5055359;28;1094;-68
2022/01/25 12:42:51;;;;;;;;;;;20.90;54.10;;;;;;5054884;28;1384;-67
2022/01/25 12:45:16;;;;;;;;;;;21.00;54.10;;;;;;5054831;28;1280;-68
2022/01/25 12:47:50;;;;;;;;;;;21.00;54.10;;;;;;5052018;28;1085;-69
2022/01/25 12:50:15;;;;;;;;;;;21.00;54.00;;;;;;5054123;28;1067;-69
2022/01/25 12:52:41;;;;;;;;;;;21.00;54.00;;;;;;5053747;28;1897;-67
2022/01/25 12:55:06;;;;;;;;;;;21.00;54.00;;;;;;5050858;28;2162;-68
2022/01/25 12:57:32;;;;;;;;;;;21.00;54.00;;;;;;5048595;28;1196;-68
2022/01/25 12:59:58;;;;;;;;;;;21.00;54.00;;;;;;5054639;28;1325;-68
2022/01/25 13:02:25;;;;;;;;;;;21.00;54.00;;;;;;5054324;28;1269;-68
2022/01/25 13:04:51;;;;;;;;;;;21.00;53.90;;;;;;5051336;28;1263;-70
2022/01/25 13:07:16;;;;;;;;;;;21.00;53.90;;;;;;5052985;28;1116;-69
2022/01/25 13:09:45;;;;;;;;;;;21.00;54.00;;;;;;5054066;28;1313;-70
2022/01/25 13:12:15;;;;;;;;;;;21.00;54.00;;;;;;5053988;28;1975;-69
2022/01/25 13:14:51;;;;;;;;;;;21.00;54.00;;;;;;5054481;28;1269;-70
2022/01/25 13:17:18;;;;;;;;;;;21.00;54.00;;;;;;5052843;28;1058;-69
2022/01/25 13:19:51;;;;;;;;;;;20.90;53.90;;;;;;5053022;28;1147;-69
2022/01/25 13:22:18;;;;;;;;;;;20.90;54.00;;;;;;5053930;28;1318;-70
2022/01/25 13:24:55;;;;;;;;;;;20.90;54.00;;;;;;5053018;28;1414;-69
2022/01/25 13:27:21;;;;;;;;;;;20.90;54.00;;;;;;5052651;28;1114;-69
2022/01/25 13:32:41;;;;;;;;;;;20.90;54.10;;;;;;5054626;28;1981;-69
2022/01/25 13:35:26;;;;;;;;;;;20.90;54.10;;;;;;5053284;28;1130;-68
2022/01/25 13:38:02;;;;;;;;;;;20.90;54.10;;;;;;5054525;28;1280;-68
2022/01/25 13:40:34;;;;;;;;;;;20.80;54.10;;;;;;5047256;28;1861;-67
2022/01/25 13:45:49;;;;;;;;;;;20.80;54.30;;;;;;5024590;28;1310;-67
2022/01/25 13:48:20;;;;;;;;;;;20.80;54.30;;;;;;5053066;28;1407;-68
2022/01/25 13:50:45;;;;;;;;;;;20.80;54.30;;;;;;5047292;28;1048;-67
2022/01/25 13:53:14;;;;;;;;;;;20.80;54.30;;;;;;5033576;28;1906;-68
2022/01/25 13:55:45;;;;;;;;;;;20.80;54.30;;;;;;5054811;28;1287;-68
2022/01/25 13:58:18;;;;;;;;;;;20.80;54.40;;;;;;5052212;28;1331;-67
2022/01/25 14:00:43;;;;;;;;;;;20.70;54.30;;;;;;5053664;28;1278;-68
2022/01/25 14:03:08;;;;;;;;;;;20.70;54.40;;;;;;5053722;28;1358;-69
2022/01/25 14:05:37;;;;;;;;;;;20.70;54.40;;;;;;5053720;28;1369;-69
2022/01/25 14:08:02;;;;;;;;;;;20.70;54.40;;;;;;5051113;28;1137;-67
2022/01/25 14:10:29;;;;;;;;;;;20.70;54.40;;;;;;5053546;28;1164;-67
2022/01/25 14:23:53;;;;;;;;;;;20.60;54.50;;;;;;5042115;28;1615;-67
2022/01/25 14:26:18;;;;;;;;;;;20.60;54.60;;;;;;5044877;28;1151;-67
2022/01/25 14:28:55;;;;;;;;;;;20.60;54.60;;;;;;5051667;28;1145;-67
2022/01/25 14:31:21;;;;;;;;;;;20.60;54.60;;;;;;5051988;28;1902;-67
2022/01/25 14:33:49;;;;;;;;;;;20.60;54.70;;;;;;5053087;28;1267;-68
2022/01/25 14:36:15;;;;;;;;;;;20.60;54.70;;;;;;5052933;28;976;-67
2022/01/25 14:38:41;;;;;;;;;;;20.60;54.70;;;;;;5052655;28;1391;-69
2022/01/25 14:41:13;;;;;;;;;;;20.60;54.80;;;;;;5051487;28;1347;-68
2022/01/25 14:43:49;;;;;;;;;;;20.60;54.80;;;;;;5052155;28;1323;-68
2022/01/25 14:46:17;;;;;;;;;;;20.60;54.80;;;;;;5051652;28;1246;-69
2022/01/25 14:48:43;;;;;;;;;;;20.50;54.80;;;;;;5052440;28;1368;-69
2022/01/25 14:51:11;;;;;;;;;;;20.50;54.80;;;;;;5034806;28;1894;-69
2022/01/25 14:53:36;;;;;;;;;;;20.50;54.80;;;;;;5052773;28;1360;-69
2022/01/25 14:56:03;;;;;;;;;;;20.50;54.90;;;;;;5052446;28;1421;-68
2022/01/25 15:01:12;;;;;;;;;;;20.50;54.90;;;;;;5052471;28;1356;-69
2022/01/25 15:03:38;;;;;;;;;;;20.50;54.90;;;;;;5050815;28;1265;-68
2022/01/25 15:06:03;;;;;;;;;;;20.50;54.90;;;;;;5052283;28;1174;-69
2022/01/25 15:08:29;;;;;;;;;;;20.50;55.00;;;;;;5052324;28;1469;-69
2022/01/25 15:10:57;;;;;;;;;;;20.50;55.00;;;;;;5052509;28;1381;-68
2022/01/25 15:13:27;;;;;;;;;;;20.50;55.00;;;;;;5051880;28;1272;-68
2022/01/25 15:15:56;;;;;;;;;;;20.40;55.00;;;;;;5052451;28;1424;-68
2022/01/25 15:18:25;;;;;;;;;;;20.40;55.00;;;;;;5051915;28;1086;-69
2022/01/25 15:20:51;;;;;;;;;;;20.40;55.00;;;;;;5051353;28;1303;-69
2022/01/25 15:23:20;;;;;;;;;;;20.40;55.00;;;;;;5050941;28;1264;-69
2022/01/25 15:25:46;;;;;;;;;;;20.40;55.10;;;;;;5052512;28;1304;-69
2022/01/25 15:28:15;;;;;;;;;;;20.40;55.10;;;;;;5050528;28;1385;-68
2022/01/25 15:30:40;;;;;;;;;;;20.40;55.10;;;;;;5054080;28;1209;-69
2022/01/25 15:33:07;;;;;;;;;;;20.40;55.10;;;;;;5055979;28;1879;-69
2022/01/25 15:35:32;;;;;;;;;;;20.40;55.10;;;;;;5056084;28;1102;-68
2022/01/25 15:38:00;;;;;;;;;;;20.40;55.20;;;;;;5055742;28;1066;-70
2022/01/25 15:40:26;;;;;;;;;;;20.40;55.20;;;;;;5056097;28;1197;-68
2022/01/25 15:42:51;;;;;;;;;;;20.30;55.20;;;;;;5056046;28;1323;-69
2022/01/25 15:45:27;;;;;;;;;;;20.30;55.20;;;;;;5054934;28;1123;-69
2022/01/25 15:47:52;;;;;;;;;;;20.30;55.20;;;;;;5054461;28;1337;-69
2022/01/25 15:50:20;;;;;;;;;;;20.30;55.20;;;;;;5055726;28;1055;-70
2022/01/25 15:52:46;;;;;;;;;;;20.30;55.20;;;;;;5055474;28;1968;-69
2022/01/25 15:55:11;;;;;;;;;;;20.30;55.30;;;;;;5055985;28;1059;-67
2022/01/25 15:57:36;;;;;;;;;;;20.30;55.30;;;;;;5054276;28;1300;-67
2022/01/25 16:00:03;;;;;;;;;;;20.30;55.30;;;;;;5055460;28;1408;-68
2022/01/25 16:02:29;;;;;;;;;;;20.30;55.30;;;;;;5037459;28;1960;-67
2022/01/25 16:04:54;;;;;;;;;;;20.30;55.30;;;;;;5056655;28;1212;-67
2022/01/25 16:07:19;;;;;;;;;;;20.30;55.40;;;;;;5055058;28;1071;-66
2022/01/25 16:09:48;;;;;;;;;;;20.30;55.30;;;;;;5054764;28;1380;-66
2022/01/25 16:12:13;;;;;;;;;;;20.30;55.40;;;;;;5055348;28;1976;-66
2022/01/25 16:14:39;;;;;;;;;;;20.30;55.40;;;;;;5065919;22;2029;-69
2022/01/25 16:17:04;;;;;;;;;;;20.30;55.40;;;;;;5045208;28;977;-71
2022/01/25 16:19:30;;;;;;;;;;;20.20;55.40;;;;;;5055159;28;1052;-70
2022/01/25 16:21:56;;;;;;;;;;;20.20;55.40;;;;;;5055696;28;1073;-71
2022/01/25 16:24:21;;;;;;;;;;;20.20;55.40;;;;;;5055374;28;1355;-71